sensor_id;sensor_type;location;lat;lon;timestamp;P1;durP1;ratioP1;P2;durP2;ratioP2
434;SDS011;204;48.942;9.256;2023-10-08T00:01:28;8.25;;;6.78;;
434;SDS011;204;48.942;9.256;2023-10-08T00:03:55;12.43;;;7.50;;
434;SDS011;204;48.942;9.256;2023-10-08T00:06:23;10.35;;;7.57;;
434;SDS011;204;48.942;9.256;2023-10-08T00:08:49;10.57;;;8.53;;
434;SDS011;204;48.942;9.256;2023-10-08T00:11:15;9.80;;;7.45;;
434;SDS011;204;48.942;9.256;2023-10-08T00:13:42;11.77;;;6.82;;
434;SDS011;204;48.942;9.256;2023-10-08T00:16:09;9.70;;;8.00;;
434;SDS011;204;48.942;9.256;2023-10-08T00:18:37;10.85;;;8.45;;
434;SDS011;204;48.942;9.256;2023-10-08T00:21:06;9.27;;;7.80;;
434;SDS011;204;48.942;9.256;2023-10-08T00:23:35;8.27;;;7.88;;
434;SDS011;204;48.942;9.256;2023-10-08T00:26:01;8.33;;;7.10;;
434;SDS011;204;48.942;9.256;2023-10-08T00:28:29;10.30;;;7.20;;
434;SDS011;204;48.942;9.256;2023-10-08T00:30:56;12.32;;;8.38;;
434;SDS011;204;48.942;9.256;2023-10-08T00:33:22;8.30;;;7.75;;
434;SDS011;204;48.942;9.256;2023-10-08T00:35:49;7.97;;;6.60;;
434;SDS011;204;48.942;9.256;2023-10-08T00:38:15;9.57;;;7.90;;
434;SDS011;204;48.942;9.256;2023-10-08T00:40:42;8.55;;;7.18;;
434;SDS011;204;48.942;9.256;2023-10-08T00:43:11;11.10;;;7.20;;
434;SDS011;204;48.942;9.256;2023-10-08T00:45:57;9.65;;;6.95;;
434;SDS011;204;48.942;9.256;2023-10-08T00:48:24;8.63;;;6.25;;
434;SDS011;204;48.942;9.256;2023-10-08T00:50:54;8.70;;;6.50;;
434;SDS011;204;48.942;9.256;2023-10-08T00:53:40;11.20;;;7.28;;
434;SDS011;204;48.942;9.256;2023-10-08T00:56:08;10.13;;;6.40;;
434;SDS011;204;48.942;9.256;2023-10-08T00:58:44;12.85;;;7.97;;
434;SDS011;204;48.942;9.256;2023-10-08T01:01:14;11.27;;;7.25;;
434;SDS011;204;48.942;9.256;2023-10-08T01:03:41;9.45;;;6.55;;
434;SDS011;204;48.942;9.256;2023-10-08T01:06:09;12.93;;;6.35;;
434;SDS011;204;48.942;9.256;2023-10-08T01:08:36;8.65;;;7.47;;
434;SDS011;204;48.942;9.256;2023-10-08T01:13:57;13.55;;;7.15;;
434;SDS011;204;48.942;9.256;2023-10-08T01:16:24;8.90;;;6.80;;
434;SDS011;204;48.942;9.256;2023-10-08T01:18:52;10.35;;;7.00;;
434;SDS011;204;48.942;9.256;2023-10-08T01:21:19;8.80;;;7.47;;
434;SDS011;204;48.942;9.256;2023-10-08T01:23:59;10.35;;;7.70;;
434;SDS011;204;48.942;9.256;2023-10-08T01:26:31;10.93;;;6.70;;
434;SDS011;204;48.942;9.256;2023-10-08T01:28:58;7.82;;;6.90;;
434;SDS011;204;48.942;9.256;2023-10-08T01:31:28;9.63;;;7.47;;
434;SDS011;204;48.942;9.256;2023-10-08T01:33:54;8.43;;;7.20;;
434;SDS011;204;48.942;9.256;2023-10-08T01:36:22;8.20;;;7.80;;
434;SDS011;204;48.942;9.256;2023-10-08T01:38:50;10.32;;;7.10;;
434;SDS011;204;48.942;9.256;2023-10-08T01:41:16;9.53;;;7.47;;
434;SDS011;204;48.942;9.256;2023-10-08T01:43:47;10.23;;;7.88;;
434;SDS011;204;48.942;9.256;2023-10-08T01:46:15;12.35;;;7.80;;
434;SDS011;204;48.942;9.256;2023-10-08T01:48:41;13.33;;;8.50;;
434;SDS011;204;48.942;9.256;2023-10-08T01:51:09;9.48;;;8.73;;
434;SDS011;204;48.942;9.256;2023-10-08T01:53:39;12.00;;;8.77;;
434;SDS011;204;48.942;9.256;2023-10-08T01:56:05;10.82;;;7.60;;
434;SDS011;204;48.942;9.256;2023-10-08T01:58:30;9.30;;;7.40;;
434;SDS011;204;48.942;9.256;2023-10-08T02:00:58;9.25;;;7.78;;
434;SDS011;204;48.942;9.256;2023-10-08T02:03:25;7.97;;;7.60;;
434;SDS011;204;48.942;9.256;2023-10-08T02:05:52;10.43;;;7.55;;
434;SDS011;204;48.942;9.256;2023-10-08T02:08:18;8.30;;;7.90;;
434;SDS011;204;48.942;9.256;2023-10-08T02:10:45;10.07;;;8.63;;
434;SDS011;204;48.942;9.256;2023-10-08T02:13:13;13.95;;;9.50;;
434;SDS011;204;48.942;9.256;2023-10-08T02:15:48;12.73;;;9.57;;
434;SDS011;204;48.942;9.256;2023-10-08T02:18:17;11.32;;;10.68;;
434;SDS011;204;48.942;9.256;2023-10-08T02:20:43;12.60;;;10.20;;
434;SDS011;204;48.942;9.256;2023-10-08T02:23:09;12.07;;;9.90;;
434;SDS011;204;48.942;9.256;2023-10-08T02:25:37;8.63;;;8.13;;
434;SDS011;204;48.942;9.256;2023-10-08T02:28:05;11.68;;;8.75;;
434;SDS011;204;48.942;9.256;2023-10-08T02:30:34;11.68;;;9.63;;
434;SDS011;204;48.942;9.256;2023-10-08T02:33:01;11.13;;;8.25;;
434;SDS011;204;48.942;9.256;2023-10-08T02:35:27;10.83;;;8.83;;
434;SDS011;204;48.942;9.256;2023-10-08T02:37:53;11.80;;;10.00;;
434;SDS011;204;48.942;9.256;2023-10-08T02:40:20;10.98;;;9.32;;
434;SDS011;204;48.942;9.256;2023-10-08T02:42:52;10.13;;;7.90;;
434;SDS011;204;48.942;9.256;2023-10-08T02:45:29;11.43;;;8.40;;
434;SDS011;204;48.942;9.256;2023-10-08T02:47:54;12.32;;;8.50;;
434;SDS011;204;48.942;9.256;2023-10-08T02:50:21;9.98;;;8.05;;
434;SDS011;204;48.942;9.256;2023-10-08T02:52:47;9.50;;;7.95;;
434;SDS011;204;48.942;9.256;2023-10-08T02:55:17;11.90;;;8.63;;
434;SDS011;204;48.942;9.256;2023-10-08T02:58:09;10.30;;;7.68;;
434;SDS011;204;48.942;9.256;2023-10-08T03:00:47;11.90;;;7.60;;
434;SDS011;204;48.942;9.256;2023-10-08T03:03:14;8.65;;;8.00;;
434;SDS011;204;48.942;9.256;2023-10-08T03:05:50;9.60;;;8.13;;
434;SDS011;204;48.942;9.256;2023-10-08T03:08:17;10.52;;;7.50;;
434;SDS011;204;48.942;9.256;2023-10-08T03:10:49;8.95;;;7.45;;
434;SDS011;204;48.942;9.256;2023-10-08T03:13:20;7.97;;;6.95;;
434;SDS011;204;48.942;9.256;2023-10-08T03:15:47;8.68;;;7.72;;
434;SDS011;204;48.942;9.256;2023-10-08T03:18:32;8.00;;;7.22;;
434;SDS011;204;48.942;9.256;2023-10-08T03:21:05;10.52;;;8.00;;
434;SDS011;204;48.942;9.256;2023-10-08T03:23:45;11.57;;;8.05;;
434;SDS011;204;48.942;9.256;2023-10-08T03:26:15;9.75;;;7.97;;
434;SDS011;204;48.942;9.256;2023-10-08T03:28:56;10.30;;;8.40;;
434;SDS011;204;48.942;9.256;2023-10-08T03:31:24;9.85;;;8.40;;
434;SDS011;204;48.942;9.256;2023-10-08T03:34:09;11.02;;;8.70;;
434;SDS011;204;48.942;9.256;2023-10-08T03:36:38;10.60;;;8.93;;
434;SDS011;204;48.942;9.256;2023-10-08T03:39:15;10.98;;;8.68;;
434;SDS011;204;48.942;9.256;2023-10-08T03:41:43;10.95;;;7.70;;
434;SDS011;204;48.942;9.256;2023-10-08T03:44:28;8.60;;;7.95;;
434;SDS011;204;48.942;9.256;2023-10-08T03:46:54;9.03;;;8.50;;
434;SDS011;204;48.942;9.256;2023-10-08T03:49:22;11.25;;;9.20;;
434;SDS011;204;48.942;9.256;2023-10-08T03:51:48;11.20;;;8.57;;
434;SDS011;204;48.942;9.256;2023-10-08T03:54:17;8.85;;;7.50;;
434;SDS011;204;48.942;9.256;2023-10-08T03:56:59;10.02;;;7.97;;
434;SDS011;204;48.942;9.256;2023-10-08T03:59:25;11.70;;;9.48;;
434;SDS011;204;48.942;9.256;2023-10-08T04:01:54;12.52;;;10.65;;
434;SDS011;204;48.942;9.256;2023-10-08T04:04:23;13.53;;;10.50;;
434;SDS011;204;48.942;9.256;2023-10-08T04:07:08;11.13;;;9.70;;
434;SDS011;204;48.942;9.256;2023-10-08T04:09:52;9.93;;;9.07;;
434;SDS011;204;48.942;9.256;2023-10-08T04:12:33;11.35;;;9.07;;
434;SDS011;204;48.942;9.256;2023-10-08T04:15:00;11.98;;;8.95;;
434;SDS011;204;48.942;9.256;2023-10-08T04:17:33;11.43;;;9.30;;
434;SDS011;204;48.942;9.256;2023-10-08T04:20:08;13.35;;;9.88;;
434;SDS011;204;48.942;9.256;2023-10-08T04:22:56;12.25;;;9.73;;
434;SDS011;204;48.942;9.256;2023-10-08T04:25:24;11.88;;;9.35;;
434;SDS011;204;48.942;9.256;2023-10-08T04:27:53;12.52;;;9.90;;
434;SDS011;204;48.942;9.256;2023-10-08T04:30:26;12.25;;;8.82;;
434;SDS011;204;48.942;9.256;2023-10-08T04:32:58;14.13;;;9.52;;
434;SDS011;204;48.942;9.256;2023-10-08T04:35:40;13.00;;;9.70;;
434;SDS011;204;48.942;9.256;2023-10-08T04:38:13;13.60;;;9.60;;
434;SDS011;204;48.942;9.256;2023-10-08T04:40:42;10.63;;;8.35;;
434;SDS011;204;48.942;9.256;2023-10-08T04:43:12;12.02;;;8.80;;
434;SDS011;204;48.942;9.256;2023-10-08T04:45:40;14.00;;;10.18;;
434;SDS011;204;48.942;9.256;2023-10-08T04:48:06;10.73;;;8.77;;
434;SDS011;204;48.942;9.256;2023-10-08T04:50:34;11.95;;;9.13;;
434;SDS011;204;48.942;9.256;2023-10-08T04:53:01;11.23;;;8.80;;
434;SDS011;204;48.942;9.256;2023-10-08T04:55:32;11.93;;;8.35;;
434;SDS011;204;48.942;9.256;2023-10-08T04:57:59;11.32;;;8.27;;
434;SDS011;204;48.942;9.256;2023-10-08T05:00:27;8.48;;;8.02;;
434;SDS011;204;48.942;9.256;2023-10-08T05:03:28;12.40;;;9.07;;
434;SDS011;204;48.942;9.256;2023-10-08T05:06:08;12.48;;;9.05;;
434;SDS011;204;48.942;9.256;2023-10-08T05:08:39;10.57;;;8.45;;
434;SDS011;204;48.942;9.256;2023-10-08T05:11:22;13.05;;;8.85;;
434;SDS011;204;48.942;9.256;2023-10-08T05:14:10;9.65;;;8.32;;
434;SDS011;204;48.942;9.256;2023-10-08T05:16:52;9.20;;;8.13;;
434;SDS011;204;48.942;9.256;2023-10-08T05:19:47;10.15;;;8.20;;
434;SDS011;204;48.942;9.256;2023-10-08T05:22:14;9.90;;;8.45;;
434;SDS011;204;48.942;9.256;2023-10-08T05:25:06;9.50;;;8.13;;
434;SDS011;204;48.942;9.256;2023-10-08T05:27:42;9.50;;;8.43;;
434;SDS011;204;48.942;9.256;2023-10-08T05:30:15;12.85;;;8.70;;
434;SDS011;204;48.942;9.256;2023-10-08T05:32:43;11.10;;;8.95;;
434;SDS011;204;48.942;9.256;2023-10-08T05:35:27;15.55;;;9.63;;
434;SDS011;204;48.942;9.256;2023-10-08T05:38:03;11.07;;;8.85;;
434;SDS011;204;48.942;9.256;2023-10-08T05:40:39;8.68;;;8.18;;
434;SDS011;204;48.942;9.256;2023-10-08T05:43:31;9.85;;;8.60;;
434;SDS011;204;48.942;9.256;2023-10-08T05:46:07;11.25;;;8.80;;
434;SDS011;204;48.942;9.256;2023-10-08T05:48:46;12.93;;;8.25;;
434;SDS011;204;48.942;9.256;2023-10-08T05:51:26;9.20;;;7.60;;
434;SDS011;204;48.942;9.256;2023-10-08T05:54:11;10.35;;;8.40;;
434;SDS011;204;48.942;9.256;2023-10-08T05:56:53;10.65;;;8.38;;
434;SDS011;204;48.942;9.256;2023-10-08T05:59:43;11.88;;;9.15;;
434;SDS011;204;48.942;9.256;2023-10-08T06:02:26;11.75;;;8.82;;
434;SDS011;204;48.942;9.256;2023-10-08T06:07:49;12.70;;;9.13;;
434;SDS011;204;48.942;9.256;2023-10-08T06:18:17;12.05;;;8.77;;
434;SDS011;204;48.942;9.256;2023-10-08T06:20:44;14.15;;;9.52;;
434;SDS011;204;48.942;9.256;2023-10-08T06:23:15;14.43;;;9.85;;
434;SDS011;204;48.942;9.256;2023-10-08T06:25:43;10.18;;;7.60;;
434;SDS011;204;48.942;9.256;2023-10-08T06:28:13;9.77;;;8.52;;
434;SDS011;204;48.942;9.256;2023-10-08T06:30:49;9.75;;;8.40;;
434;SDS011;204;48.942;9.256;2023-10-08T06:33:18;9.98;;;8.00;;
434;SDS011;204;48.942;9.256;2023-10-08T06:35:45;8.18;;;7.80;;
434;SDS011;204;48.942;9.256;2023-10-08T06:38:26;9.40;;;7.63;;
434;SDS011;204;48.942;9.256;2023-10-08T06:40:54;9.63;;;7.22;;
434;SDS011;204;48.942;9.256;2023-10-08T06:43:21;8.67;;;6.70;;
434;SDS011;204;48.942;9.256;2023-10-08T06:45:49;7.93;;;6.93;;
434;SDS011;204;48.942;9.256;2023-10-08T06:48:18;9.48;;;6.80;;
434;SDS011;204;48.942;9.256;2023-10-08T06:50:48;10.50;;;6.72;;
434;SDS011;204;48.942;9.256;2023-10-08T06:53:15;8.48;;;5.85;;
434;SDS011;204;48.942;9.256;2023-10-08T06:55:43;8.30;;;6.20;;
434;SDS011;204;48.942;9.256;2023-10-08T06:58:09;8.68;;;6.50;;
434;SDS011;204;48.942;9.256;2023-10-08T07:00:37;11.55;;;6.50;;
434;SDS011;204;48.942;9.256;2023-10-08T07:03:11;12.20;;;7.05;;
434;SDS011;204;48.942;9.256;2023-10-08T07:05:50;10.70;;;7.60;;
434;SDS011;204;48.942;9.256;2023-10-08T07:08:22;11.95;;;7.72;;
434;SDS011;204;48.942;9.256;2023-10-08T07:10:54;16.00;;;8.50;;
434;SDS011;204;48.942;9.256;2023-10-08T07:13:21;9.32;;;7.50;;
434;SDS011;204;48.942;9.256;2023-10-08T07:15:48;12.05;;;7.68;;
434;SDS011;204;48.942;9.256;2023-10-08T07:18:14;9.32;;;7.38;;
434;SDS011;204;48.942;9.256;2023-10-08T07:20:47;7.65;;;6.03;;
434;SDS011;204;48.942;9.256;2023-10-08T07:23:18;9.63;;;6.88;;
434;SDS011;204;48.942;9.256;2023-10-08T07:25:52;8.50;;;7.00;;
434;SDS011;204;48.942;9.256;2023-10-08T07:28:23;13.70;;;7.22;;
434;SDS011;204;48.942;9.256;2023-10-08T07:30:50;8.05;;;7.38;;
434;SDS011;204;48.942;9.256;2023-10-08T07:33:17;7.20;;;6.80;;
434;SDS011;204;48.942;9.256;2023-10-08T07:35:46;6.72;;;6.15;;
434;SDS011;204;48.942;9.256;2023-10-08T07:38:22;10.07;;;6.35;;
434;SDS011;204;48.942;9.256;2023-10-08T07:40:52;10.18;;;6.97;;
434;SDS011;204;48.942;9.256;2023-10-08T07:43:19;7.75;;;6.78;;
434;SDS011;204;48.942;9.256;2023-10-08T07:45:45;8.67;;;6.20;;
434;SDS011;204;48.942;9.256;2023-10-08T07:48:11;9.77;;;6.57;;
434;SDS011;204;48.942;9.256;2023-10-08T07:50:42;7.70;;;5.90;;
434;SDS011;204;48.942;9.256;2023-10-08T07:53:10;9.50;;;6.97;;
434;SDS011;204;48.942;9.256;2023-10-08T07:55:43;8.80;;;7.65;;
434;SDS011;204;48.942;9.256;2023-10-08T07:58:10;11.43;;;7.97;;
434;SDS011;204;48.942;9.256;2023-10-08T08:00:36;8.90;;;7.13;;
434;SDS011;204;48.942;9.256;2023-10-08T08:03:04;12.87;;;7.10;;
434;SDS011;204;48.942;9.256;2023-10-08T08:05:30;10.00;;;6.35;;
434;SDS011;204;48.942;9.256;2023-10-08T08:07:56;7.53;;;6.20;;
434;SDS011;204;48.942;9.256;2023-10-08T08:10:24;11.33;;;8.50;;
434;SDS011;204;48.942;9.256;2023-10-08T08:12:50;24.10;;;19.53;;
434;SDS011;204;48.942;9.256;2023-10-08T08:15:21;10.20;;;7.68;;
434;SDS011;204;48.942;9.256;2023-10-08T08:17:48;8.87;;;6.37;;
434;SDS011;204;48.942;9.256;2023-10-08T08:20:14;7.87;;;5.30;;
434;SDS011;204;48.942;9.256;2023-10-08T08:22:59;8.67;;;5.77;;
434;SDS011;204;48.942;9.256;2023-10-08T08:25:34;5.50;;;4.77;;
434;SDS011;204;48.942;9.256;2023-10-08T08:28:22;6.67;;;5.10;;
434;SDS011;204;48.942;9.256;2023-10-08T08:30:53;9.03;;;5.13;;
434;SDS011;204;48.942;9.256;2023-10-08T08:33:20;8.50;;;5.17;;
434;SDS011;204;48.942;9.256;2023-10-08T08:36:08;9.07;;;4.90;;
434;SDS011;204;48.942;9.256;2023-10-08T08:38:34;5.90;;;5.10;;
434;SDS011;204;48.942;9.256;2023-10-08T08:41:01;8.60;;;5.80;;
434;SDS011;204;48.942;9.256;2023-10-08T08:43:32;6.93;;;5.30;;
434;SDS011;204;48.942;9.256;2023-10-08T08:46:04;6.87;;;5.90;;
434;SDS011;204;48.942;9.256;2023-10-08T08:48:37;6.73;;;6.30;;
434;SDS011;204;48.942;9.256;2023-10-08T08:51:07;7.00;;;5.50;;
434;SDS011;204;48.942;9.256;2023-10-08T08:53:34;11.13;;;5.97;;
434;SDS011;204;48.942;9.256;2023-10-08T08:56:05;6.20;;;5.53;;
434;SDS011;204;48.942;9.256;2023-10-08T08:58:34;7.23;;;5.00;;
434;SDS011;204;48.942;9.256;2023-10-08T09:01:00;6.50;;;4.37;;
434;SDS011;204;48.942;9.256;2023-10-08T09:03:28;6.33;;;4.80;;
434;SDS011;204;48.942;9.256;2023-10-08T09:05:57;6.70;;;4.50;;
434;SDS011;204;48.942;9.256;2023-10-08T09:08:27;4.80;;;4.30;;
434;SDS011;204;48.942;9.256;2023-10-08T09:11:02;9.10;;;4.20;;
434;SDS011;204;48.942;9.256;2023-10-08T09:13:33;6.40;;;4.87;;
434;SDS011;204;48.942;9.256;2023-10-08T09:16:03;6.93;;;6.53;;
434;SDS011;204;48.942;9.256;2023-10-08T09:18:41;6.33;;;4.67;;
434;SDS011;204;48.942;9.256;2023-10-08T09:21:13;7.30;;;4.60;;
434;SDS011;204;48.942;9.256;2023-10-08T09:23:50;8.20;;;4.50;;
434;SDS011;204;48.942;9.256;2023-10-08T09:26:17;9.00;;;4.73;;
434;SDS011;204;48.942;9.256;2023-10-08T09:28:54;8.30;;;5.03;;
434;SDS011;204;48.942;9.256;2023-10-08T09:31:22;11.67;;;4.33;;
434;SDS011;204;48.942;9.256;2023-10-08T09:33:55;6.53;;;4.10;;
434;SDS011;204;48.942;9.256;2023-10-08T09:36:24;5.93;;;4.20;;
434;SDS011;204;48.942;9.256;2023-10-08T09:39:03;6.67;;;4.40;;
434;SDS011;204;48.942;9.256;2023-10-08T09:41:32;6.80;;;4.30;;
434;SDS011;204;48.942;9.256;2023-10-08T09:43:59;6.50;;;3.93;;
434;SDS011;204;48.942;9.256;2023-10-08T09:46:29;6.40;;;4.30;;
434;SDS011;204;48.942;9.256;2023-10-08T09:48:59;6.30;;;4.23;;
434;SDS011;204;48.942;9.256;2023-10-08T09:51:26;7.63;;;4.67;;
434;SDS011;204;48.942;9.256;2023-10-08T09:56:45;7.40;;;3.70;;
434;SDS011;204;48.942;9.256;2023-10-08T09:59:12;6.10;;;4.23;;
434;SDS011;204;48.942;9.256;2023-10-08T10:01:40;6.83;;;4.90;;
434;SDS011;204;48.942;9.256;2023-10-08T10:04:11;8.83;;;4.83;;
434;SDS011;204;48.942;9.256;2023-10-08T10:06:38;7.43;;;4.73;;
434;SDS011;204;48.942;9.256;2023-10-08T10:09:07;9.50;;;4.10;;
434;SDS011;204;48.942;9.256;2023-10-08T10:11:41;6.27;;;3.60;;
434;SDS011;204;48.942;9.256;2023-10-08T10:14:13;6.37;;;4.07;;
434;SDS011;204;48.942;9.256;2023-10-08T10:16:39;5.93;;;4.37;;
434;SDS011;204;48.942;9.256;2023-10-08T10:19:06;7.77;;;3.80;;
434;SDS011;204;48.942;9.256;2023-10-08T10:21:43;4.73;;;4.20;;
434;SDS011;204;48.942;9.256;2023-10-08T10:27:11;7.13;;;4.30;;
434;SDS011;204;48.942;9.256;2023-10-08T10:29:39;8.40;;;3.77;;
434;SDS011;204;48.942;9.256;2023-10-08T10:32:08;5.40;;;3.73;;
434;SDS011;204;48.942;9.256;2023-10-08T10:34:38;9.20;;;7.77;;
434;SDS011;204;48.942;9.256;2023-10-08T10:37:04;10.00;;;7.30;;
434;SDS011;204;48.942;9.256;2023-10-08T10:39:34;6.90;;;4.23;;
434;SDS011;204;48.942;9.256;2023-10-08T10:42:05;7.90;;;4.57;;
434;SDS011;204;48.942;9.256;2023-10-08T10:44:45;6.37;;;4.00;;
434;SDS011;204;48.942;9.256;2023-10-08T10:47:14;5.20;;;3.50;;
434;SDS011;204;48.942;9.256;2023-10-08T10:49:41;6.63;;;4.87;;
434;SDS011;204;48.942;9.256;2023-10-08T10:52:26;7.60;;;6.50;;
434;SDS011;204;48.942;9.256;2023-10-08T10:55:17;7.43;;;4.10;;
434;SDS011;204;48.942;9.256;2023-10-08T10:57:49;9.13;;;3.73;;
434;SDS011;204;48.942;9.256;2023-10-08T11:00:21;5.60;;;3.67;;
434;SDS011;204;48.942;9.256;2023-10-08T11:02:56;4.33;;;3.43;;
434;SDS011;204;48.942;9.256;2023-10-08T11:05:41;4.83;;;3.63;;
434;SDS011;204;48.942;9.256;2023-10-08T11:08:12;6.00;;;3.70;;
434;SDS011;204;48.942;9.256;2023-10-08T11:10:41;5.63;;;4.23;;
434;SDS011;204;48.942;9.256;2023-10-08T11:13:19;5.10;;;3.00;;
434;SDS011;204;48.942;9.256;2023-10-08T11:15:47;4.30;;;3.60;;
434;SDS011;204;48.942;9.256;2023-10-08T11:18:17;5.23;;;3.60;;
434;SDS011;204;48.942;9.256;2023-10-08T11:20:44;6.03;;;4.00;;
434;SDS011;204;48.942;9.256;2023-10-08T11:23:30;6.60;;;3.70;;
434;SDS011;204;48.942;9.256;2023-10-08T11:26:00;4.27;;;3.70;;
434;SDS011;204;48.942;9.256;2023-10-08T11:30:59;3.63;;;2.87;;
434;SDS011;204;48.942;9.256;2023-10-08T11:33:38;5.50;;;3.83;;
434;SDS011;204;48.942;9.256;2023-10-08T11:36:08;6.90;;;3.40;;
434;SDS011;204;48.942;9.256;2023-10-08T11:38:44;6.70;;;3.40;;
434;SDS011;204;48.942;9.256;2023-10-08T11:41:15;7.07;;;3.50;;
434;SDS011;204;48.942;9.256;2023-10-08T11:43:51;4.37;;;3.10;;
434;SDS011;204;48.942;9.256;2023-10-08T11:46:28;5.67;;;3.23;;
434;SDS011;204;48.942;9.256;2023-10-08T11:49:03;3.93;;;3.80;;
434;SDS011;204;48.942;9.256;2023-10-08T11:51:42;7.00;;;3.73;;
434;SDS011;204;48.942;9.256;2023-10-08T11:54:08;8.60;;;3.70;;
434;SDS011;204;48.942;9.256;2023-10-08T11:56:36;7.00;;;4.50;;
434;SDS011;204;48.942;9.256;2023-10-08T11:59:03;5.60;;;3.23;;
434;SDS011;204;48.942;9.256;2023-10-08T12:01:38;10.43;;;5.17;;
434;SDS011;204;48.942;9.256;2023-10-08T12:04:07;7.40;;;3.87;;
434;SDS011;204;48.942;9.256;2023-10-08T12:06:41;8.07;;;4.67;;
434;SDS011;204;48.942;9.256;2023-10-08T12:09:12;8.77;;;3.83;;
434;SDS011;204;48.942;9.256;2023-10-08T12:11:39;8.17;;;3.77;;
434;SDS011;204;48.942;9.256;2023-10-08T12:14:05;8.20;;;4.93;;
434;SDS011;204;48.942;9.256;2023-10-08T12:16:31;8.63;;;4.30;;
434;SDS011;204;48.942;9.256;2023-10-08T12:19:00;9.90;;;3.60;;
434;SDS011;204;48.942;9.256;2023-10-08T12:21:27;7.87;;;4.03;;
434;SDS011;204;48.942;9.256;2023-10-08T12:23:59;10.80;;;3.77;;
434;SDS011;204;48.942;9.256;2023-10-08T12:26:26;11.73;;;4.30;;
434;SDS011;204;48.942;9.256;2023-10-08T12:28:51;8.93;;;4.10;;
434;SDS011;204;48.942;9.256;2023-10-08T12:31:18;6.70;;;4.10;;
434;SDS011;204;48.942;9.256;2023-10-08T12:33:49;8.77;;;4.27;;
434;SDS011;204;48.942;9.256;2023-10-08T12:36:25;8.20;;;4.40;;
434;SDS011;204;48.942;9.256;2023-10-08T12:38:52;7.90;;;4.10;;
434;SDS011;204;48.942;9.256;2023-10-08T12:41:22;9.30;;;4.70;;
434;SDS011;204;48.942;9.256;2023-10-08T12:43:51;7.37;;;4.03;;
434;SDS011;204;48.942;9.256;2023-10-08T12:46:18;8.60;;;4.20;;
434;SDS011;204;48.942;9.256;2023-10-08T12:48:48;8.27;;;4.30;;
434;SDS011;204;48.942;9.256;2023-10-08T12:51:19;9.70;;;4.80;;
434;SDS011;204;48.942;9.256;2023-10-08T12:53:49;10.30;;;4.50;;
434;SDS011;204;48.942;9.256;2023-10-08T12:56:16;9.73;;;3.97;;
434;SDS011;204;48.942;9.256;2023-10-08T12:58:46;7.77;;;4.03;;
434;SDS011;204;48.942;9.256;2023-10-08T13:01:13;7.37;;;4.13;;
434;SDS011;204;48.942;9.256;2023-10-08T13:03:42;10.13;;;4.10;;
434;SDS011;204;48.942;9.256;2023-10-08T13:06:14;7.03;;;4.73;;
434;SDS011;204;48.942;9.256;2023-10-08T13:08:50;7.77;;;3.80;;
434;SDS011;204;48.942;9.256;2023-10-08T13:11:18;17.40;;;4.43;;
434;SDS011;204;48.942;9.256;2023-10-08T13:13:48;5.73;;;3.50;;
434;SDS011;204;48.942;9.256;2023-10-08T13:16:18;8.17;;;4.43;;
434;SDS011;204;48.942;9.256;2023-10-08T13:18:46;5.43;;;3.80;;
434;SDS011;204;48.942;9.256;2023-10-08T13:21:16;5.17;;;4.27;;
434;SDS011;204;48.942;9.256;2023-10-08T13:23:44;8.10;;;4.37;;
434;SDS011;204;48.942;9.256;2023-10-08T13:26:11;7.03;;;4.10;;
434;SDS011;204;48.942;9.256;2023-10-08T13:28:42;6.30;;;4.03;;
434;SDS011;204;48.942;9.256;2023-10-08T13:31:08;8.43;;;4.07;;
434;SDS011;204;48.942;9.256;2023-10-08T13:33:40;4.20;;;3.20;;
434;SDS011;204;48.942;9.256;2023-10-08T13:36:13;15.20;;;4.30;;
434;SDS011;204;48.942;9.256;2023-10-08T13:38:40;7.07;;;4.50;;
434;SDS011;204;48.942;9.256;2023-10-08T13:41:06;8.50;;;4.67;;
434;SDS011;204;48.942;9.256;2023-10-08T13:43:46;8.03;;;4.33;;
434;SDS011;204;48.942;9.256;2023-10-08T13:46:24;4.90;;;3.43;;
434;SDS011;204;48.942;9.256;2023-10-08T13:48:50;9.43;;;5.60;;
434;SDS011;204;48.942;9.256;2023-10-08T13:51:16;10.60;;;5.83;;
434;SDS011;204;48.942;9.256;2023-10-08T13:53:52;8.07;;;4.30;;
434;SDS011;204;48.942;9.256;2023-10-08T13:56:19;7.37;;;4.93;;
434;SDS011;204;48.942;9.256;2023-10-08T13:58:49;7.67;;;3.87;;
434;SDS011;204;48.942;9.256;2023-10-08T14:01:16;7.73;;;4.80;;
434;SDS011;204;48.942;9.256;2023-10-08T14:03:48;3.60;;;3.17;;
434;SDS011;204;48.942;9.256;2023-10-08T14:06:18;7.30;;;4.53;;
434;SDS011;204;48.942;9.256;2023-10-08T14:08:45;6.70;;;4.80;;
434;SDS011;204;48.942;9.256;2023-10-08T14:11:19;7.07;;;4.63;;
434;SDS011;204;48.942;9.256;2023-10-08T14:13:48;8.10;;;4.60;;
434;SDS011;204;48.942;9.256;2023-10-08T14:16:16;7.90;;;5.10;;
434;SDS011;204;48.942;9.256;2023-10-08T14:18:43;8.07;;;4.90;;
434;SDS011;204;48.942;9.256;2023-10-08T14:21:15;7.40;;;4.83;;
434;SDS011;204;48.942;9.256;2023-10-08T14:23:42;8.47;;;4.47;;
434;SDS011;204;48.942;9.256;2023-10-08T14:26:08;6.67;;;4.20;;
434;SDS011;204;48.942;9.256;2023-10-08T14:28:35;6.20;;;4.07;;
434;SDS011;204;48.942;9.256;2023-10-08T14:31:17;11.33;;;4.07;;
434;SDS011;204;48.942;9.256;2023-10-08T14:33:47;8.37;;;4.00;;
434;SDS011;204;48.942;9.256;2023-10-08T14:36:32;6.83;;;4.10;;
434;SDS011;204;48.942;9.256;2023-10-08T14:39:17;6.50;;;4.50;;
434;SDS011;204;48.942;9.256;2023-10-08T14:42:01;7.93;;;4.53;;
434;SDS011;204;48.942;9.256;2023-10-08T14:44:45;11.37;;;3.60;;
434;SDS011;204;48.942;9.256;2023-10-08T14:47:11;9.83;;;4.70;;
434;SDS011;204;48.942;9.256;2023-10-08T14:49:38;10.90;;;4.60;;
434;SDS011;204;48.942;9.256;2023-10-08T14:52:03;8.23;;;3.97;;
434;SDS011;204;48.942;9.256;2023-10-08T14:54:30;6.83;;;3.93;;
434;SDS011;204;48.942;9.256;2023-10-08T14:56:56;9.77;;;3.97;;
434;SDS011;204;48.942;9.256;2023-10-08T14:59:23;8.63;;;4.40;;
434;SDS011;204;48.942;9.256;2023-10-08T15:01:48;8.20;;;4.77;;
434;SDS011;204;48.942;9.256;2023-10-08T15:04:15;12.80;;;5.43;;
434;SDS011;204;48.942;9.256;2023-10-08T15:06:41;4.53;;;3.27;;
434;SDS011;204;48.942;9.256;2023-10-08T15:09:08;11.80;;;5.10;;
434;SDS011;204;48.942;9.256;2023-10-08T15:11:34;7.73;;;4.70;;
434;SDS011;204;48.942;9.256;2023-10-08T15:14:01;10.30;;;4.30;;
434;SDS011;204;48.942;9.256;2023-10-08T15:16:34;7.93;;;4.40;;
434;SDS011;204;48.942;9.256;2023-10-08T15:19:01;11.27;;;5.10;;
434;SDS011;204;48.942;9.256;2023-10-08T15:21:29;6.30;;;4.70;;
434;SDS011;204;48.942;9.256;2023-10-08T15:23:57;7.40;;;4.13;;
434;SDS011;204;48.942;9.256;2023-10-08T15:26:23;8.83;;;4.20;;
434;SDS011;204;48.942;9.256;2023-10-08T15:28:49;6.80;;;4.00;;
434;SDS011;204;48.942;9.256;2023-10-08T15:31:14;7.20;;;3.63;;
434;SDS011;204;48.942;9.256;2023-10-08T15:33:40;11.47;;;4.80;;
434;SDS011;204;48.942;9.256;2023-10-08T15:36:05;10.50;;;4.90;;
434;SDS011;204;48.942;9.256;2023-10-08T15:38:31;9.40;;;4.60;;
434;SDS011;204;48.942;9.256;2023-10-08T15:40:56;13.50;;;4.60;;
434;SDS011;204;48.942;9.256;2023-10-08T15:43:24;8.57;;;5.00;;
434;SDS011;204;48.942;9.256;2023-10-08T15:45:51;9.47;;;4.70;;
434;SDS011;204;48.942;9.256;2023-10-08T15:48:18;7.67;;;4.47;;
434;SDS011;204;48.942;9.256;2023-10-08T15:50:44;8.50;;;4.97;;
434;SDS011;204;48.942;9.256;2023-10-08T15:53:09;10.07;;;5.13;;
434;SDS011;204;48.942;9.256;2023-10-08T15:55:35;10.30;;;5.07;;
434;SDS011;204;48.942;9.256;2023-10-08T15:58:01;6.50;;;4.40;;
434;SDS011;204;48.942;9.256;2023-10-08T16:00:26;15.23;;;4.60;;
434;SDS011;204;48.942;9.256;2023-10-08T16:02:52;13.27;;;5.67;;
434;SDS011;204;48.942;9.256;2023-10-08T16:05:17;8.63;;;4.80;;
434;SDS011;204;48.942;9.256;2023-10-08T16:07:43;6.10;;;4.23;;
434;SDS011;204;48.942;9.256;2023-10-08T16:10:09;8.97;;;3.93;;
434;SDS011;204;48.942;9.256;2023-10-08T16:12:35;11.73;;;5.27;;
434;SDS011;204;48.942;9.256;2023-10-08T16:15:01;9.57;;;3.87;;
434;SDS011;204;48.942;9.256;2023-10-08T16:17:28;8.17;;;4.43;;
434;SDS011;204;48.942;9.256;2023-10-08T16:19:55;9.80;;;4.87;;
434;SDS011;204;48.942;9.256;2023-10-08T16:22:21;6.97;;;5.03;;
434;SDS011;204;48.942;9.256;2023-10-08T16:24:47;10.03;;;5.73;;